Knight Air

Knight Air knights of the virtual airways


 METAR AND TAF INFORMATION
METAR FOR UMOO
ADDS - METARS form results

(1749 UTC 11 May 2021)
Data provider http://aviationweather.gov/metar/data/
 
Forecast for: UMOO (MOGILEV , BY)
Text: TAF UMOO 111102Z 1112/1121 07006MPS 9999 SCT025
Forecast period: 1200 to 2100 UTC 11 May 2021
Forecast type: FROM: standard forecast or significant change
Winds: from the ENE (70 degrees) at 14 MPH (12 knots; 6.2 m/s)
Visibility: 6 or more miles (10+ km)
Ceiling: at least 12,000 feet AGL
Clouds: scattered clouds at 2500 feet AGL
Weather: no significant weather forecast for this period
Text: TEMPO 1112/1118 11004G09MPS
Forecast period: 1200 to 1800 UTC 11 May 2021
Forecast type: TEMPORARY: The following changes expected for less than half the time period
Winds: from the ESE (110 degrees) at 9 MPH (8 knots; 4.1 m/s)
gusting to 20 MPH (17 knots; 8.7 m/s)
Visibility: missing
Ceiling: unknown
Clouds: missing
Weather: no significant weather forecast for this period

 AIRPORT MAP

 RUNWAY INFORMATION
Runway 13 Runway length 8422 ft Runway width 138 ft
Runway elevation 625 ft Runway displaced threshold 0 ft Runway heading 137
Runway 31 Runway length 8422 ft Runway width 138 ft
Runway elevation 616 ft Runway displaced threshold 0 ft Runway heading 317

 AIRPORT FREQUENCIES
Type APP Name APP Frequency 127.1 MHZ

 AIRPORT NEAR NAVIGATION AIDS
Type NDB Name Mogilev Frequency 485 KHZ
Type NDB Name Mogilev Frequency 485 KHZ